createdAt,value
2023-03-29T00:01:59.047Z,492.00
2023-03-29T00:05:59.276Z,488.00
2023-03-29T00:09:59.400Z,489.00
2023-03-29T00:13:59.636Z,486.00
2023-03-29T00:18:00.347Z,489.00
2023-03-29T00:22:00.029Z,488.00
2023-03-29T00:26:00.310Z,491.00
2023-03-29T00:30:00.471Z,487.00
2023-03-29T00:34:00.418Z,487.00
2023-03-29T00:38:00.785Z,491.00
2023-03-29T00:42:00.789Z,485.00
2023-03-29T00:46:00.443Z,485.00
2023-03-29T00:50:00.324Z,485.00
2023-03-29T00:54:00.322Z,486.00
2023-03-29T00:58:00.292Z,492.00
2023-03-29T01:02:00.342Z,491.00
2023-03-29T01:06:00.221Z,492.00
2023-03-29T01:10:00.300Z,489.00
2023-03-29T01:14:00.287Z,486.00
2023-03-29T01:18:00.825Z,487.00
2023-03-29T01:22:00.793Z,483.00
2023-03-29T01:26:00.939Z,480.00
2023-03-29T01:30:01.334Z,484.00
2023-03-29T01:34:01.328Z,483.00
2023-03-29T01:38:01.319Z,484.00
2023-03-29T01:42:01.355Z,485.00
2023-03-29T01:46:01.027Z,480.00
2023-03-29T01:50:01.007Z,489.00
2023-03-29T01:54:01.326Z,489.00
2023-03-29T01:58:00.919Z,486.00
2023-03-29T02:02:00.883Z,487.00
2023-03-29T02:06:01.342Z,485.00
2023-03-29T02:10:00.785Z,485.00
2023-03-29T02:14:00.821Z,480.00
2023-03-29T02:18:00.870Z,478.00
2023-03-29T02:22:00.699Z,480.00
2023-03-29T02:26:00.838Z,479.00
2023-03-29T02:30:00.820Z,479.00
2023-03-29T02:34:00.848Z,475.00
2023-03-29T02:38:00.805Z,477.00
2023-03-29T02:42:00.532Z,477.00
2023-03-29T02:46:00.837Z,474.00
2023-03-29T02:50:00.851Z,474.00
2023-03-29T02:54:00.855Z,476.00
2023-03-29T02:58:00.847Z,476.00
2023-03-29T03:02:01.089Z,480.00
2023-03-29T03:06:01.342Z,475.00
2023-03-29T03:10:00.937Z,475.00
2023-03-29T03:14:01.372Z,478.00
2023-03-29T03:18:00.943Z,479.00
2023-03-29T03:22:00.859Z,486.00
2023-03-29T03:26:00.847Z,486.00
2023-03-29T03:30:00.765Z,482.00
2023-03-29T03:34:00.853Z,485.00
2023-03-29T03:38:00.697Z,486.00
2023-03-29T03:42:00.911Z,482.00
2023-03-29T03:46:01.424Z,482.00
2023-03-29T03:50:01.336Z,482.00
2023-03-29T03:54:01.876Z,479.00
2023-03-29T03:58:01.744Z,474.00
2023-03-29T04:02:02.476Z,476.00
2023-03-29T04:06:02.388Z,472.00
2023-03-29T04:10:02.871Z,471.00
2023-03-29T04:14:02.601Z,474.00
2023-03-29T04:18:02.925Z,475.00
2023-03-29T04:22:03.372Z,473.00
2023-03-29T04:26:03.357Z,473.00
2023-03-29T04:30:02.986Z,472.00
2023-03-29T04:34:03.414Z,472.00
2023-03-29T04:38:02.883Z,475.00
2023-03-29T04:42:02.876Z,478.00
2023-03-29T04:46:02.987Z,484.00
2023-03-29T04:50:02.897Z,480.00
2023-03-29T04:54:02.768Z,480.00
2023-03-29T04:58:02.881Z,481.00
2023-03-29T05:02:02.881Z,486.00
2023-03-29T05:06:03.013Z,485.00
2023-03-29T05:10:03.389Z,481.00
2023-03-29T05:14:09.474Z,484.00
2023-03-29T05:18:03.461Z,485.00
2023-03-29T05:22:03.408Z,483.00
2023-03-29T05:26:03.463Z,481.00
2023-03-29T05:30:03.412Z,478.00
2023-03-29T05:34:03.156Z,479.00
2023-03-29T05:38:03.429Z,484.00
2023-03-29T05:42:03.916Z,593.00
2023-03-29T05:46:03.449Z,679.00
2023-03-29T05:50:03.002Z,828.00
2023-03-29T05:54:03.418Z,782.00
2023-03-29T05:58:03.419Z,749.00
2023-03-29T06:02:03.464Z,737.00
2023-03-29T06:06:03.928Z,721.00
2023-03-29T06:10:03.631Z,706.00
2023-03-29T06:14:03.928Z,700.00
2023-03-29T06:18:04.497Z,693.00
2023-03-29T06:22:04.436Z,684.00
2023-03-29T06:26:04.926Z,677.00
2023-03-29T06:30:04.698Z,677.00
2023-03-29T06:34:04.932Z,676.00
2023-03-29T06:38:05.421Z,670.00
2023-03-29T06:42:16.894Z,662.00
2023-03-29T06:46:06.461Z,659.00
2023-03-29T06:50:05.215Z,652.00
2023-03-29T06:54:05.449Z,646.00
2023-03-29T06:58:05.948Z,647.00
2023-03-29T07:02:05.959Z,581.00
2023-03-29T07:06:05.925Z,621.00
2023-03-29T07:10:06.442Z,606.00
2023-03-29T07:14:06.463Z,618.00
2023-03-29T07:18:06.494Z,572.00
2023-03-29T07:22:06.447Z,574.00
2023-03-29T07:26:06.248Z,575.00
2023-03-29T07:30:06.450Z,562.00
2023-03-29T07:34:06.508Z,543.00
2023-03-29T07:38:06.963Z,529.00
2023-03-29T07:42:06.975Z,539.00
2023-03-29T07:46:06.931Z,622.00
2023-03-29T07:50:06.967Z,731.00
2023-03-29T07:54:07.450Z,733.00
2023-03-29T07:58:07.450Z,816.00
2023-03-29T08:02:07.230Z,874.00
2023-03-29T08:06:07.489Z,984.00
2023-03-29T08:10:07.500Z,1185.00
2023-03-29T08:14:07.983Z,1290.00
2023-03-29T08:18:08.112Z,1375.00
2023-03-29T08:22:07.680Z,1459.00
2023-03-29T08:26:07.949Z,1515.00
2023-03-29T08:30:08.460Z,1581.00
2023-03-29T08:34:08.462Z,1648.00
2023-03-29T08:38:08.469Z,1730.00
2023-03-29T08:42:08.521Z,1863.00
2023-03-29T08:46:08.987Z,926.00
2023-03-29T08:50:09.013Z,1252.00
2023-03-29T08:54:09.511Z,985.00
2023-03-29T08:58:09.462Z,889.00
2023-03-29T09:02:09.179Z,531.00
2023-03-29T09:06:09.466Z,768.00
2023-03-29T09:10:09.498Z,956.00
2023-03-29T09:14:09.488Z,986.00
2023-03-29T09:18:09.714Z,1143.00
2023-03-29T09:22:10.001Z,1254.00
2023-03-29T09:26:09.977Z,1357.00
2023-03-29T09:30:10.001Z,1477.00
2023-03-29T09:34:10.492Z,1572.00
2023-03-29T09:38:10.229Z,1644.00
2023-03-29T09:42:10.468Z,1765.00
2023-03-29T09:46:10.513Z,1808.00
2023-03-29T09:50:22.978Z,1895.00
2023-03-29T09:54:11.499Z,1886.00
2023-03-29T09:58:10.567Z,1832.00
2023-03-29T10:02:10.780Z,1780.00
2023-03-29T10:06:10.995Z,1738.00
2023-03-29T10:10:11.217Z,1701.00
2023-03-29T10:14:11.368Z,1664.00
2023-03-29T10:18:11.382Z,1621.00
2023-03-29T10:22:11.304Z,1592.00
2023-03-29T10:26:11.268Z,1560.00
2023-03-29T10:30:11.235Z,1519.00
2023-03-29T10:34:11.922Z,1487.00
2023-03-29T10:38:11.164Z,1452.00
2023-03-29T10:42:11.532Z,1419.00
2023-03-29T10:46:11.585Z,1397.00
2023-03-29T10:50:11.510Z,1380.00
2023-03-29T10:54:10.994Z,1358.00
2023-03-29T10:58:11.492Z,1331.00
2023-03-29T11:02:11.271Z,1313.00
2023-03-29T11:06:11.492Z,1296.00
2023-03-29T11:10:12.046Z,1292.00
2023-03-29T11:14:11.758Z,1268.00
2023-03-29T11:18:12.027Z,1242.00
2023-03-29T11:22:12.523Z,1217.00
2023-03-29T11:26:12.505Z,1203.00
2023-03-29T11:30:12.091Z,1189.00
2023-03-29T11:34:12.049Z,1174.00
2023-03-29T11:38:12.194Z,1170.00
2023-03-29T11:42:11.985Z,1155.00
2023-03-29T11:46:12.005Z,1133.00
2023-03-29T11:50:11.893Z,1124.00
2023-03-29T11:54:11.856Z,1112.00
2023-03-29T11:58:11.814Z,1098.00
2023-03-29T12:02:11.963Z,1075.00
2023-03-29T12:06:12.080Z,1059.00
2023-03-29T12:10:12.115Z,1044.00
2023-03-29T12:14:12.532Z,1034.00
2023-03-29T12:18:12.538Z,1020.00
2023-03-29T12:22:12.509Z,1008.00
2023-03-29T12:26:13.051Z,990.00
2023-03-29T12:30:12.819Z,983.00
2023-03-29T12:34:12.907Z,975.00
2023-03-29T12:38:13.059Z,965.00
2023-03-29T12:42:13.131Z,945.00
2023-03-29T12:46:13.226Z,942.00
2023-03-29T12:50:13.304Z,934.00
2023-03-29T12:54:13.464Z,921.00
2023-03-29T12:58:13.498Z,910.00
2023-03-29T13:02:20.694Z,917.00
2023-03-29T13:06:13.535Z,907.00
2023-03-29T13:10:13.539Z,898.00
2023-03-29T13:14:13.494Z,892.00
2023-03-29T13:18:13.609Z,888.00
2023-03-29T13:22:13.409Z,883.00
2023-03-29T13:26:13.360Z,870.00
2023-03-29T13:30:13.322Z,865.00
2023-03-29T13:34:13.300Z,865.00
2023-03-29T13:38:13.349Z,862.00
2023-03-29T13:42:13.614Z,851.00
2023-03-29T13:46:13.178Z,859.00
2023-03-29T13:50:13.157Z,864.00
2023-03-29T13:54:13.176Z,850.00
2023-03-29T13:58:13.254Z,849.00
2023-03-29T14:02:13.410Z,841.00
2023-03-29T14:06:13.417Z,838.00
2023-03-29T14:10:13.478Z,833.00
2023-03-29T14:14:13.582Z,847.00
2023-03-29T14:18:13.640Z,835.00
2023-03-29T14:22:13.744Z,825.00
2023-03-29T14:26:14.101Z,819.00
2023-03-29T14:30:14.088Z,809.00
2023-03-29T14:34:14.125Z,812.00
2023-03-29T14:38:14.609Z,808.00
2023-03-29T14:42:14.237Z,800.00
2023-03-29T14:46:14.451Z,799.00
2023-03-29T14:50:14.626Z,793.00
2023-03-29T14:54:15.097Z,794.00
2023-03-29T14:58:15.113Z,790.00
2023-03-29T15:02:15.004Z,718.00
2023-03-29T15:06:14.957Z,735.00
2023-03-29T15:10:15.122Z,744.00
2023-03-29T15:14:15.022Z,757.00
2023-03-29T15:18:15.649Z,758.00
2023-03-29T15:22:15.210Z,752.00
2023-03-29T15:26:15.282Z,741.00
2023-03-29T15:30:15.626Z,735.00
2023-03-29T15:34:15.626Z,727.00
2023-03-29T15:38:15.605Z,722.00
2023-03-29T15:42:15.565Z,715.00
2023-03-29T15:46:15.655Z,711.00
2023-03-29T15:50:16.157Z,700.00
2023-03-29T15:54:16.148Z,696.00
2023-03-29T15:58:16.258Z,694.00
2023-03-29T16:02:16.088Z,693.00
2023-03-29T16:06:15.938Z,686.00
2023-03-29T16:10:16.125Z,679.00
2023-03-29T16:14:16.077Z,681.00
2023-03-29T16:18:16.161Z,675.00
2023-03-29T16:22:16.261Z,669.00
2023-03-29T16:26:16.645Z,657.00
2023-03-29T16:30:16.320Z,653.00
2023-03-29T16:34:16.676Z,648.00
2023-03-29T16:38:16.389Z,648.00
2023-03-29T16:42:16.420Z,648.00
2023-03-29T16:46:16.652Z,645.00
2023-03-29T16:50:16.581Z,641.00
2023-03-29T16:54:16.669Z,638.00
2023-03-29T16:58:16.612Z,637.00
2023-03-29T17:02:16.634Z,635.00
2023-03-29T17:06:16.722Z,630.00
2023-03-29T17:10:17.154Z,630.00
2023-03-29T17:14:16.823Z,626.00
2023-03-29T17:18:16.874Z,617.00
2023-03-29T17:22:17.144Z,620.00
2023-03-29T17:26:17.015Z,617.00
2023-03-29T17:30:17.135Z,615.00
2023-03-29T17:34:17.066Z,611.00
2023-03-29T17:38:17.200Z,611.00
2023-03-29T17:42:17.673Z,611.00
2023-03-29T17:46:17.301Z,606.00
2023-03-29T17:50:17.661Z,598.00
2023-03-29T17:54:17.409Z,599.00
2023-03-29T17:58:17.692Z,599.00
2023-03-29T18:02:17.561Z,595.00
2023-03-29T18:06:17.650Z,585.00
2023-03-29T18:10:17.773Z,589.00
2023-03-29T18:14:17.928Z,592.00
2023-03-29T18:18:18.717Z,585.00
2023-03-29T18:22:18.669Z,582.00
2023-03-29T18:26:18.657Z,579.00
2023-03-29T18:30:19.179Z,577.00
2023-03-29T18:34:18.925Z,579.00
2023-03-29T18:38:19.212Z,579.00
2023-03-29T18:42:19.178Z,575.00
2023-03-29T18:46:19.230Z,576.00
2023-03-29T18:50:19.189Z,572.00
2023-03-29T18:54:19.179Z,566.00
2023-03-29T18:58:19.189Z,570.00
2023-03-29T19:02:19.307Z,566.00
2023-03-29T19:06:19.712Z,564.00
2023-03-29T19:10:19.280Z,565.00
2023-03-29T19:14:19.351Z,564.00
2023-03-29T19:18:19.700Z,560.00
2023-03-29T19:22:20.204Z,560.00
2023-03-29T19:26:19.737Z,559.00
2023-03-29T19:30:19.562Z,556.00
2023-03-29T19:34:19.612Z,564.00
2023-03-29T19:38:19.692Z,557.00
2023-03-29T19:42:19.682Z,558.00
2023-03-29T19:46:20.206Z,556.00
2023-03-29T19:50:19.732Z,549.00
2023-03-29T19:54:20.201Z,547.00
2023-03-29T19:58:20.202Z,547.00
2023-03-29T20:02:19.914Z,547.00
2023-03-29T20:06:20.218Z,546.00
2023-03-29T20:10:20.073Z,541.00
2023-03-29T20:14:20.144Z,536.00
2023-03-29T20:18:20.213Z,534.00
2023-03-29T20:22:20.217Z,532.00
2023-03-29T20:26:20.735Z,534.00
2023-03-29T20:30:20.294Z,530.00
2023-03-29T20:34:20.384Z,532.00
2023-03-29T20:38:20.705Z,533.00
2023-03-29T20:42:20.438Z,531.00
2023-03-29T20:46:20.775Z,535.00
2023-03-29T20:50:20.514Z,536.00
2023-03-29T20:54:20.724Z,534.00
2023-03-29T20:58:20.760Z,528.00
2023-03-29T21:02:20.782Z,529.00
2023-03-29T21:06:20.750Z,528.00
2023-03-29T21:10:20.755Z,531.00
2023-03-29T21:14:21.265Z,527.00
2023-03-29T21:18:21.229Z,526.00
2023-03-29T21:22:20.883Z,524.00
2023-03-29T21:26:20.938Z,522.00
2023-03-29T21:30:21.257Z,524.00
2023-03-29T21:34:21.320Z,525.00
2023-03-29T21:38:21.262Z,523.00
2023-03-29T21:42:21.261Z,523.00
2023-03-29T21:46:21.216Z,528.00
2023-03-29T21:50:21.761Z,525.00
2023-03-29T21:54:21.408Z,524.00
2023-03-29T21:58:21.760Z,527.00
2023-03-29T22:02:21.644Z,529.00
2023-03-29T22:06:21.651Z,527.00
2023-03-29T22:10:21.735Z,530.00
2023-03-29T22:14:22.304Z,526.00
2023-03-29T22:18:21.813Z,523.00
2023-03-29T22:22:22.259Z,520.00
2023-03-29T22:26:21.905Z,519.00
2023-03-29T22:30:22.250Z,514.00
2023-03-29T22:34:22.252Z,512.00
2023-03-29T22:38:22.064Z,517.00
2023-03-29T22:42:22.252Z,517.00
2023-03-29T22:46:22.227Z,520.00
2023-03-29T22:50:22.285Z,518.00
2023-03-29T22:54:22.265Z,514.00
2023-03-29T22:58:22.790Z,512.00
2023-03-29T23:02:22.382Z,510.00
2023-03-29T23:06:22.360Z,515.00
2023-03-29T23:10:22.761Z,519.00
2023-03-29T23:14:22.788Z,515.00
2023-03-29T23:18:22.792Z,514.00
2023-03-29T23:22:22.597Z,511.00
2023-03-29T23:26:22.766Z,514.00
2023-03-29T23:30:22.765Z,516.00
2023-03-29T23:34:22.789Z,513.00
2023-03-29T23:38:22.805Z,509.00
2023-03-29T23:42:22.803Z,510.00
2023-03-29T23:46:23.300Z,509.00
2023-03-29T23:50:23.271Z,506.00
2023-03-29T23:54:22.977Z,508.00
